NAC241 KMCI-KSTL
Flight info
| Callsign | NAC241 |
|---|---|
| Flight time | 0h 40m |
| Altitude | 31000 |
| Route | LAKES5 COU KAYLA KAYLA3 |
| Aircraft | B737/M-SDE2E3FGHIRWXY/LB1 |
Departure
| Time | 2026-05-07 21:10 |
|---|---|
| Airport | Kansas City International Airport (KMCI) |
Arrival
| Time | 2026-05-07 21:50 |
|---|---|
| Airport | St. Louis Lambert International Airport (KSTL) |
| Time | Latitude | Longitude | Altitude | Speed | Heading |
|---|---|---|---|---|---|
| 2026-05-07 20:57 | 39.30618 | -94.72024 | 1013 ft | 0 kts | 195° |
| 2026-05-07 21:03 | 39.30622 | -94.72023 | 1038 ft | 2 kts | 203° |
| 2026-05-07 21:03 | 39.30636 | -94.72012 | 1007 ft | 2 kts | 230° |
| 2026-05-07 21:03 | 39.30637 | -94.72011 | 1009 ft | 0 kts | 232° |
| 2026-05-07 21:05 | 39.30635 | -94.72014 | 1005 ft | 1 kts | 235° |
| 2026-05-07 21:05 | 39.30631 | -94.72035 | 1034 ft | 5 kts | 268° |
| 2026-05-07 21:06 | 39.30679 | -94.72091 | 1013 ft | 11 kts | 304° |
| 2026-05-07 21:06 | 39.30700 | -94.72173 | 1013 ft | 9 kts | 285° |
| 2026-05-07 21:06 | 39.30734 | -94.72237 | 1013 ft | 10 kts | 339° |
| 2026-05-07 21:06 | 39.30821 | -94.72220 | 1013 ft | 20 kts | 13° |
| 2026-05-07 21:07 | 39.31009 | -94.72163 | 1013 ft | 35 kts | 13° |
| 2026-05-07 21:07 | 39.31281 | -94.72083 | 1013 ft | 45 kts | 13° |
| 2026-05-07 21:07 | 39.31614 | -94.71984 | 1013 ft | 54 kts | 13° |
| 2026-05-07 21:07 | 39.31910 | -94.71896 | 1014 ft | 35 kts | 12° |
| 2026-05-07 21:08 | 39.32123 | -94.71836 | 1014 ft | 28 kts | 8° |
| 2026-05-07 21:08 | 39.32181 | -94.71885 | 1014 ft | 8 kts | 283° |
| 2026-05-07 21:08 | 39.32192 | -94.71963 | 1014 ft | 11 kts | 282° |
| 2026-05-07 21:08 | 39.32191 | -94.72072 | 1014 ft | 13 kts | 238° |
| 2026-05-07 21:09 | 39.32100 | -94.72119 | 1015 ft | 18 kts | 193° |
| 2026-05-07 21:09 | 39.31749 | -94.72223 | 1013 ft | 87 kts | 192° |
| 2026-05-07 21:09 | 39.30970 | -94.72456 | 1048 ft | 139 kts | 195° |
| 2026-05-07 21:09 | 39.29941 | -94.72761 | 1366 ft | 166 kts | 195° |
| 2026-05-07 21:10 | 39.28770 | -94.73129 | 1993 ft | 178 kts | 197° |
| 2026-05-07 21:10 | 39.27564 | -94.73380 | 3020 ft | 170 kts | 188° |
| 2026-05-07 21:10 | 39.26375 | -94.73145 | 3833 ft | 190 kts | 162° |
| 2026-05-07 21:10 | 39.25218 | -94.72040 | 4220 ft | 224 kts | 137° |
| 2026-05-07 21:11 | 39.24369 | -94.70251 | 4906 ft | 244 kts | 116° |
| 2026-05-07 21:11 | 39.23852 | -94.68043 | 5267 ft | 271 kts | 106° |
| 2026-05-07 21:11 | 39.23009 | -94.63127 | 6553 ft | 299 kts | 104° |
| 2026-05-07 21:12 | 39.22490 | -94.60478 | 7406 ft | 308 kts | 104° |
| 2026-05-07 21:12 | 39.21894 | -94.57797 | 8388 ft | 313 kts | 108° |
| 2026-05-07 21:12 | 39.21180 | -94.55158 | 9377 ft | 318 kts | 110° |
| 2026-05-07 21:12 | 39.20414 | -94.52458 | 10351 ft | 323 kts | 110° |
| 2026-05-07 21:13 | 39.19636 | -94.49706 | 11316 ft | 327 kts | 109° |
| 2026-05-07 21:13 | 39.18858 | -94.46927 | 12270 ft | 333 kts | 109° |
| 2026-05-07 21:13 | 39.18073 | -94.44088 | 13174 ft | 340 kts | 108° |
| 2026-05-07 21:13 | 39.17278 | -94.41189 | 14097 ft | 346 kts | 108° |
| 2026-05-07 21:14 | 39.16471 | -94.38234 | 14992 ft | 351 kts | 108° |
| 2026-05-07 21:14 | 39.15655 | -94.35241 | 15906 ft | 356 kts | 108° |
| 2026-05-07 21:14 | 39.14827 | -94.32203 | 16808 ft | 362 kts | 108° |
| 2026-05-07 21:14 | 39.13996 | -94.29154 | 17689 ft | 368 kts | 109° |
| 2026-05-07 21:15 | 39.13140 | -94.26021 | 18538 ft | 374 kts | 109° |
| 2026-05-07 21:15 | 39.12268 | -94.22828 | 19281 ft | 381 kts | 109° |
| 2026-05-07 21:15 | 39.11381 | -94.19588 | 20069 ft | 386 kts | 109° |
| 2026-05-07 21:15 | 39.10482 | -94.16311 | 20871 ft | 391 kts | 109° |
| 2026-05-07 21:16 | 39.09648 | -94.12949 | 21648 ft | 397 kts | 103° |
| 2026-05-07 21:16 | 39.09215 | -94.09429 | 22411 ft | 401 kts | 94° |
| 2026-05-07 21:16 | 39.08975 | -94.05821 | 23188 ft | 407 kts | 92° |
| 2026-05-07 21:16 | 39.08771 | -94.02157 | 23874 ft | 413 kts | 92° |
| 2026-05-07 21:17 | 39.08569 | -93.98428 | 24484 ft | 420 kts | 92° |
| 2026-05-07 21:17 | 39.08358 | -93.94701 | 25097 ft | 426 kts | 93° |
| 2026-05-07 21:17 | 39.08130 | -93.90871 | 25707 ft | 432 kts | 93° |
| 2026-05-07 21:17 | 39.07890 | -93.86994 | 26334 ft | 438 kts | 94° |
| 2026-05-07 21:18 | 39.07638 | -93.83048 | 26949 ft | 444 kts | 94° |
| 2026-05-07 21:18 | 39.07379 | -93.79067 | 27539 ft | 450 kts | 94° |
| 2026-05-07 21:18 | 39.07112 | -93.75026 | 28110 ft | 456 kts | 95° |
| 2026-05-07 21:18 | 39.06842 | -93.70941 | 28690 ft | 462 kts | 95° |
| 2026-05-07 21:19 | 39.06565 | -93.66798 | 29059 ft | 470 kts | 95° |
| 2026-05-07 21:19 | 39.06280 | -93.62534 | 29032 ft | 485 kts | 95° |
| 2026-05-07 21:19 | 39.05985 | -93.58145 | 29047 ft | 498 kts | 95° |
| 2026-05-07 21:19 | 39.05681 | -93.53651 | 29040 ft | 511 kts | 95° |
| 2026-05-07 21:20 | 39.05052 | -93.44407 | 29048 ft | 531 kts | 95° |
| 2026-05-07 21:20 | 39.04389 | -93.34784 | 29052 ft | 547 kts | 95° |
| 2026-05-07 21:21 | 39.03702 | -93.24927 | 29042 ft | 558 kts | 95° |
| 2026-05-07 21:21 | 39.03001 | -93.14996 | 29022 ft | 557 kts | 95° |
| 2026-05-07 21:22 | 39.02297 | -93.05141 | 29032 ft | 555 kts | 95° |
| 2026-05-07 21:22 | 39.01582 | -92.95235 | 29028 ft | 555 kts | 95° |
| 2026-05-07 21:23 | 39.00676 | -92.85384 | 29012 ft | 554 kts | 103° |
| 2026-05-07 21:23 | 38.98239 | -92.76039 | 29029 ft | 552 kts | 115° |
| 2026-05-07 21:24 | 38.95267 | -92.66897 | 29024 ft | 557 kts | 115° |
| 2026-05-07 21:24 | 38.92334 | -92.57691 | 29020 ft | 560 kts | 115° |
| 2026-05-07 21:25 | 38.89440 | -92.48402 | 29018 ft | 560 kts | 114° |
| 2026-05-07 21:25 | 38.86543 | -92.39110 | 29028 ft | 560 kts | 115° |
| 2026-05-07 21:26 | 38.83632 | -92.29835 | 29030 ft | 560 kts | 115° |
| 2026-05-07 21:26 | 38.80938 | -92.20438 | 29021 ft | 563 kts | 106° |
| 2026-05-07 21:27 | 38.79672 | -92.10585 | 29033 ft | 565 kts | 98° |
| 2026-05-07 21:27 | 38.78670 | -92.00574 | 29030 ft | 565 kts | 98° |
| 2026-05-07 21:28 | 38.77598 | -91.90569 | 29031 ft | 566 kts | 98° |
| 2026-05-07 21:28 | 38.76459 | -91.80591 | 29036 ft | 566 kts | 99° |
| 2026-05-07 21:29 | 38.75308 | -91.70677 | 29038 ft | 566 kts | 99° |
| 2026-05-07 21:29 | 38.74146 | -91.60693 | 29040 ft | 567 kts | 99° |
| 2026-05-07 21:30 | 38.72979 | -91.50696 | 29033 ft | 567 kts | 99° |
| 2026-05-07 21:30 | 38.71803 | -91.40693 | 29037 ft | 567 kts | 99° |
| 2026-05-07 21:31 | 38.70618 | -91.30696 | 29036 ft | 568 kts | 99° |
| 2026-05-07 21:31 | 38.69429 | -91.20709 | 29034 ft | 568 kts | 99° |
| 2026-05-07 21:32 | 38.68661 | -91.10680 | 29036 ft | 569 kts | 94° |
| 2026-05-07 21:32 | 38.68144 | -91.00563 | 29036 ft | 569 kts | 94° |
| 2026-05-07 21:33 | 38.67590 | -90.90447 | 29024 ft | 569 kts | 94° |
| 2026-05-07 21:33 | 38.66969 | -90.80348 | 29040 ft | 569 kts | 95° |
| 2026-05-07 21:34 | 38.66370 | -90.70985 | 29008 ft | 543 kts | 95° |
| 2026-05-07 21:34 | 38.66066 | -90.66255 | 28781 ft | 525 kts | 95° |
| 2026-05-07 21:34 | 38.65731 | -90.61745 | 28493 ft | 510 kts | 101° |
| 2026-05-07 21:35 | 38.64794 | -90.57428 | 28068 ft | 496 kts | 114° |
| 2026-05-07 21:35 | 38.63499 | -90.53379 | 27636 ft | 486 kts | 117° |
| 2026-05-07 21:35 | 38.62150 | -90.49449 | 27198 ft | 478 kts | 118° |
| 2026-05-07 21:35 | 38.60800 | -90.45591 | 26699 ft | 469 kts | 118° |
| 2026-05-07 21:36 | 38.59483 | -90.41844 | 26183 ft | 456 kts | 118° |
| 2026-05-07 21:36 | 38.58195 | -90.38192 | 25649 ft | 446 kts | 118° |
| 2026-05-07 21:36 | 38.56943 | -90.34655 | 25071 ft | 439 kts | 118° |
| 2026-05-07 21:36 | 38.55690 | -90.31130 | 24507 ft | 432 kts | 118° |
| 2026-05-07 21:37 | 38.54451 | -90.27667 | 23955 ft | 425 kts | 118° |
| 2026-05-07 21:37 | 38.53221 | -90.24253 | 23377 ft | 419 kts | 118° |
| 2026-05-07 21:37 | 38.52007 | -90.20899 | 22729 ft | 413 kts | 118° |
| 2026-05-07 21:37 | 38.50807 | -90.17596 | 22107 ft | 408 kts | 118° |
| 2026-05-07 21:38 | 38.49566 | -90.14370 | 21472 ft | 400 kts | 127° |
| 2026-05-07 21:38 | 38.47710 | -90.11871 | 20845 ft | 378 kts | 155° |
| 2026-05-07 21:38 | 38.46200 | -90.10893 | 20372 ft | 360 kts | 172° |
| 2026-05-07 21:38 | 38.43829 | -90.10569 | 19644 ft | 330 kts | 200° |
| 2026-05-07 21:39 | 38.41808 | -90.11566 | 18928 ft | 299 kts | 227° |
| 2026-05-07 21:39 | 38.40576 | -90.13536 | 18232 ft | 277 kts | 255° |
| 2026-05-07 21:39 | 38.40392 | -90.15898 | 17437 ft | 269 kts | 283° |
| 2026-05-07 21:39 | 38.41276 | -90.17980 | 16674 ft | 276 kts | 311° |
| 2026-05-07 21:40 | 38.43430 | -90.19801 | 15702 ft | 284 kts | 324° |
| 2026-05-07 21:40 | 38.44613 | -90.20607 | 15213 ft | 285 kts | 326° |
| 2026-05-07 21:40 | 38.46487 | -90.21506 | 14456 ft | 299 kts | 346° |
| 2026-05-07 21:40 | 38.48610 | -90.21140 | 13755 ft | 320 kts | 12° |
| 2026-05-07 21:41 | 38.50654 | -90.20051 | 12957 ft | 312 kts | 6° |
| 2026-05-07 21:41 | 38.52693 | -90.20021 | 12171 ft | 289 kts | 338° |
| 2026-05-07 21:41 | 38.54352 | -90.21275 | 11413 ft | 274 kts | 309° |
| 2026-05-07 21:41 | 38.55184 | -90.23405 | 10696 ft | 270 kts | 283° |
| 2026-05-07 21:42 | 38.55246 | -90.25798 | 9955 ft | 273 kts | 263° |
| 2026-05-07 21:42 | 38.54607 | -90.28086 | 9156 ft | 278 kts | 243° |
| 2026-05-07 21:42 | 38.53338 | -90.29968 | 8380 ft | 284 kts | 223° |
| 2026-05-07 21:42 | 38.51585 | -90.31190 | 7614 ft | 292 kts | 202° |
| 2026-05-07 21:43 | 38.49565 | -90.31460 | 6845 ft | 300 kts | 174° |
| 2026-05-07 21:43 | 38.47649 | -90.30376 | 6093 ft | 308 kts | 143° |
| 2026-05-07 21:43 | 38.46390 | -90.28192 | 5333 ft | 310 kts | 112° |
| 2026-05-07 21:43 | 38.46131 | -90.25519 | 4589 ft | 309 kts | 82° |
| 2026-05-07 21:44 | 38.46932 | -90.23026 | 3838 ft | 305 kts | 52° |
| 2026-05-07 21:44 | 38.48489 | -90.21281 | 3508 ft | 285 kts | 27° |
| 2026-05-07 21:44 | 38.50244 | -90.20467 | 3475 ft | 255 kts | 7° |
| 2026-05-07 21:44 | 38.51929 | -90.20396 | 3385 ft | 233 kts | 348° |
| 2026-05-07 21:45 | 38.53472 | -90.20777 | 3328 ft | 220 kts | 342° |
| 2026-05-07 21:45 | 38.54934 | -90.21226 | 3298 ft | 213 kts | 342° |
| 2026-05-07 21:45 | 38.56391 | -90.21686 | 3322 ft | 219 kts | 341° |
| 2026-05-07 21:45 | 38.57888 | -90.22160 | 3340 ft | 224 kts | 342° |
| 2026-05-07 21:46 | 38.59408 | -90.22632 | 3338 ft | 222 kts | 342° |
| 2026-05-07 21:46 | 38.60873 | -90.23081 | 3305 ft | 210 kts | 342° |
| 2026-05-07 21:46 | 38.62252 | -90.23502 | 3289 ft | 197 kts | 342° |
| 2026-05-07 21:46 | 38.63564 | -90.23903 | 3290 ft | 197 kts | 342° |
| 2026-05-07 21:47 | 38.64940 | -90.24327 | 3055 ft | 208 kts | 341° |
| 2026-05-07 21:47 | 38.66358 | -90.24760 | 2792 ft | 211 kts | 342° |
| 2026-05-07 21:47 | 38.67796 | -90.25199 | 2498 ft | 214 kts | 341° |
| 2026-05-07 21:47 | 38.69225 | -90.25744 | 2157 ft | 213 kts | 327° |
| 2026-05-07 21:48 | 38.70338 | -90.26857 | 1914 ft | 194 kts | 303° |
| 2026-05-07 21:48 | 38.71048 | -90.28228 | 1711 ft | 180 kts | 298° |
| 2026-05-07 21:48 | 38.71724 | -90.29559 | 1463 ft | 172 kts | 298° |
| 2026-05-07 21:48 | 38.72334 | -90.30795 | 1313 ft | 154 kts | 298° |
| 2026-05-07 21:49 | 38.72840 | -90.31880 | 1099 ft | 137 kts | 297° |
| 2026-05-07 21:49 | 38.73337 | -90.32869 | 877 ft | 126 kts | 296° |
| 2026-05-07 21:49 | 38.73796 | -90.33806 | 674 ft | 123 kts | 293° |
| 2026-05-07 21:49 | 38.74204 | -90.34677 | 618 ft | 94 kts | 302° |
| 2026-05-07 21:50 | 38.74436 | -90.35142 | 620 ft | 31 kts | 304° |
| 2026-05-07 21:50 | 38.74490 | -90.35325 | 616 ft | 15 kts | 255° |
| 2026-05-07 21:50 | 38.74413 | -90.35406 | 622 ft | 13 kts | 216° |
| 2026-05-07 21:50 | 38.74423 | -90.35492 | 622 ft | 11 kts | 301° |
| 2026-05-07 21:51 | 38.74463 | -90.35578 | 620 ft | 12 kts | 301° |
| 2026-05-07 21:51 | 38.74528 | -90.35642 | 621 ft | 12 kts | 357° |
| 2026-05-07 21:51 | 38.74610 | -90.35643 | 621 ft | 12 kts | 358° |
| 2026-05-07 21:51 | 38.74701 | -90.35645 | 620 ft | 15 kts | 359° |
| 2026-05-07 21:52 | 38.74812 | -90.35647 | 623 ft | 15 kts | 359° |
| 2026-05-07 21:52 | 38.74847 | -90.35615 | 623 ft | 5 kts | 116° |
| 2026-05-07 21:52 | 38.74824 | -90.35576 | 631 ft | 7 kts | 123° |
| 2026-05-07 21:52 | 38.74760 | -90.35447 | 621 ft | 28 kts | 122° |
| 2026-05-07 21:53 | 38.74666 | -90.35248 | 625 ft | 20 kts | 106° |
| 2026-05-07 21:53 | 38.74728 | -90.35151 | 618 ft | 14 kts | 31° |
| 2026-05-07 21:53 | 38.74809 | -90.35089 | 621 ft | 13 kts | 31° |
| 2026-05-07 21:53 | 38.74888 | -90.35031 | 620 ft | 12 kts | 11° |
| 2026-05-07 21:54 | 38.74950 | -90.35018 | 616 ft | 5 kts | 33° |
| 2026-05-07 21:54 | 38.74967 | -90.35005 | 621 ft | 0 kts | 30° |